LFBO/TLS METAR and TAF weather

Enter ICAO airport designator
Station Type Date Time Source
LFBO METAR 2022/06/30 12:30 UTC NOAA

LFBO 301230Z AUTO 30007KT 9999 SCT019 BKN025 OVC031 17/14 Q1017 NOSIG


Station Type Date Time Source
LFBO Decoded METAR 2022/06/30 12:30 UTC NOAA

Toulouse / Blagnac, France (LFBO) 43-38N 001-22E 153M
Jun 30, 2022 - 08:30 AM EDT / 2022.06.30 1230 UTC
Wind: from the WNW (300 degrees) at 8 MPH (7 KT):0
Visibility: greater than 7 mile(s):0
Sky conditions: overcast
Temperature: 62 F (17 C)
Dew Point: 57 F (14 C)
Relative Humidity: 82%
Pressure (altimeter): 30.03 in. Hg (1017 hPa)
ob: LFBO 301230Z AUTO 30007KT 9999 SCT019 BKN025 OVC031 17/14 Q1017 NOSIG
cycle: 12

Station Type Date Time Source
LFBO TAF 2022/06/30 12:42 UTC NOAA

TAF TAF LFBO 301100Z 3012/0118 28010KT 9999 SCT018 BKN030
TEMPO 3019/3022 -SHRA BKN020 SCT030TCU
BECMG 3022/3024 VRB03KT CAVOK
TEMPO 0103/0107 4000 BR BKN008

Example: see airport list